sensor_id;sensor_type;location;lat;lon;timestamp;P1;durP1;ratioP1;P2;durP2;ratioP2
66127;SDS011;52925;52.436;-1.952;2023-10-31T05:47:42;5.23;;;3.30;;
66127;SDS011;52925;52.436;-1.952;2023-10-31T05:49:10;5.57;;;3.37;;
66127;SDS011;52925;52.436;-1.952;2023-10-31T05:50:35;6.30;;;3.10;;
66127;SDS011;52925;52.436;-1.952;2023-10-31T05:51:55;3.23;;;2.70;;
66127;SDS011;52925;52.436;-1.952;2023-10-31T05:53:16;5.37;;;3.13;;
66127;SDS011;52925;52.436;-1.952;2023-10-31T05:54:36;4.97;;;3.53;;
66127;SDS011;52925;52.436;-1.952;2023-10-31T05:55:57;4.13;;;3.30;;
66127;SDS011;52925;52.436;-1.952;2023-10-31T05:57:17;4.90;;;3.50;;
66127;SDS011;52925;52.436;-1.952;2023-10-31T05:58:39;4.17;;;3.10;;
66127;SDS011;52925;52.436;-1.952;2023-10-31T05:59:59;4.93;;;3.33;;
66127;SDS011;52925;52.436;-1.952;2023-10-31T06:01:20;5.23;;;3.40;;
66127;SDS011;52925;52.436;-1.952;2023-10-31T06:02:40;5.50;;;3.40;;
66127;SDS011;52925;52.436;-1.952;2023-10-31T06:04:01;4.53;;;3.13;;
66127;SDS011;52925;52.436;-1.952;2023-10-31T06:05:22;6.00;;;3.67;;
66127;SDS011;52925;52.436;-1.952;2023-10-31T06:06:43;5.77;;;3.73;;
66127;SDS011;52925;52.436;-1.952;2023-10-31T06:08:03;6.03;;;3.57;;
66127;SDS011;52925;52.436;-1.952;2023-10-31T06:09:24;5.80;;;3.40;;
66127;SDS011;52925;52.436;-1.952;2023-10-31T06:10:44;7.33;;;3.60;;
66127;SDS011;52925;52.436;-1.952;2023-10-31T06:12:05;6.13;;;3.67;;
66127;SDS011;52925;52.436;-1.952;2023-10-31T06:13:25;4.37;;;3.50;;
66127;SDS011;52925;52.436;-1.952;2023-10-31T06:14:47;6.40;;;4.20;;
66127;SDS011;52925;52.436;-1.952;2023-10-31T06:16:07;6.23;;;4.20;;
66127;SDS011;52925;52.436;-1.952;2023-10-31T06:17:28;8.43;;;4.27;;
66127;SDS011;52925;52.436;-1.952;2023-10-31T06:18:49;6.10;;;3.90;;
66127;SDS011;52925;52.436;-1.952;2023-10-31T06:20:11;6.90;;;4.37;;
66127;SDS011;52925;52.436;-1.952;2023-10-31T06:21:35;5.03;;;3.67;;
66127;SDS011;52925;52.436;-1.952;2023-10-31T06:22:56;5.63;;;3.60;;
66127;SDS011;52925;52.436;-1.952;2023-10-31T06:24:17;5.47;;;3.83;;
66127;SDS011;52925;52.436;-1.952;2023-10-31T06:25:38;6.40;;;4.40;;
66127;SDS011;52925;52.436;-1.952;2023-10-31T06:26:59;6.23;;;3.93;;
66127;SDS011;52925;52.436;-1.952;2023-10-31T06:28:20;5.53;;;3.73;;
66127;SDS011;52925;52.436;-1.952;2023-10-31T06:29:39;5.20;;;4.57;;
66127;SDS011;52925;52.436;-1.952;2023-10-31T06:31:00;5.17;;;3.83;;
66127;SDS011;52925;52.436;-1.952;2023-10-31T15:54:42;2.57;;;1.57;;
66127;SDS011;52925;52.436;-1.952;2023-10-31T15:56:04;3.07;;;1.53;;
66127;SDS011;52925;52.436;-1.952;2023-10-31T15:57:27;2.13;;;1.40;;
66127;SDS011;52925;52.436;-1.952;2023-10-31T15:58:48;2.03;;;1.20;;
66127;SDS011;52925;52.436;-1.952;2023-10-31T16:00:08;2.00;;;1.13;;
66127;SDS011;52925;52.436;-1.952;2023-10-31T16:01:31;2.27;;;1.30;;
66127;SDS011;52925;52.436;-1.952;2023-10-31T16:02:51;3.80;;;1.50;;
66127;SDS011;52925;52.436;-1.952;2023-10-31T16:04:12;1.97;;;1.20;;
66127;SDS011;52925;52.436;-1.952;2023-10-31T16:05:32;1.43;;;1.03;;
66127;SDS011;52925;52.436;-1.952;2023-10-31T16:06:53;1.80;;;1.33;;
66127;SDS011;52925;52.436;-1.952;2023-10-31T16:08:13;2.57;;;1.30;;
66127;SDS011;52925;52.436;-1.952;2023-10-31T16:09:34;2.07;;;1.23;;
66127;SDS011;52925;52.436;-1.952;2023-10-31T16:10:56;2.13;;;1.40;;
66127;SDS011;52925;52.436;-1.952;2023-10-31T16:12:17;4.63;;;1.37;;
66127;SDS011;52925;52.436;-1.952;2023-10-31T16:13:37;1.63;;;1.10;;
66127;SDS011;52925;52.436;-1.952;2023-10-31T16:14:59;1.20;;;1.10;;
66127;SDS011;52925;52.436;-1.952;2023-10-31T16:16:19;3.43;;;1.60;;
66127;SDS011;52925;52.436;-1.952;2023-10-31T16:17:40;3.03;;;1.10;;
66127;SDS011;52925;52.436;-1.952;2023-10-31T16:19:00;2.60;;;1.43;;
66127;SDS011;52925;52.436;-1.952;2023-10-31T16:20:21;2.00;;;1.60;;
66127;SDS011;52925;52.436;-1.952;2023-10-31T16:21:41;3.77;;;1.80;;
66127;SDS011;52925;52.436;-1.952;2023-10-31T16:23:02;3.17;;;1.43;;
66127;SDS011;52925;52.436;-1.952;2023-10-31T16:24:22;3.13;;;1.50;;
66127;SDS011;52925;52.436;-1.952;2023-10-31T16:25:43;1.90;;;1.40;;
66127;SDS011;52925;52.436;-1.952;2023-10-31T16:27:05;2.93;;;1.90;;
66127;SDS011;52925;52.436;-1.952;2023-10-31T16:28:26;2.90;;;1.40;;
66127;SDS011;52925;52.436;-1.952;2023-10-31T16:29:48;3.27;;;1.60;;
66127;SDS011;52925;52.436;-1.952;2023-10-31T16:31:09;1.63;;;1.50;;
66127;SDS011;52925;52.436;-1.952;2023-10-31T16:32:30;1.40;;;1.30;;
66127;SDS011;52925;52.436;-1.952;2023-10-31T16:33:51;4.20;;;1.27;;
66127;SDS011;52925;52.436;-1.952;2023-10-31T16:35:11;2.23;;;1.40;;
66127;SDS011;52925;52.436;-1.952;2023-10-31T16:36:32;2.00;;;1.50;;
66127;SDS011;52925;52.436;-1.952;2023-10-31T16:37:52;2.30;;;1.60;;
66127;SDS011;52925;52.436;-1.952;2023-10-31T16:39:13;2.10;;;1.40;;
66127;SDS011;52925;52.436;-1.952;2023-10-31T16:40:33;2.07;;;1.50;;
66127;SDS011;52925;52.436;-1.952;2023-10-31T16:41:54;2.33;;;1.30;;
66127;SDS011;52925;52.436;-1.952;2023-10-31T16:43:16;4.10;;;1.57;;
66127;SDS011;52925;52.436;-1.952;2023-10-31T16:44:37;2.90;;;1.50;;
66127;SDS011;52925;52.436;-1.952;2023-10-31T16:45:57;2.23;;;1.30;;
66127;SDS011;52925;52.436;-1.952;2023-10-31T16:47:18;2.87;;;1.70;;
66127;SDS011;52925;52.436;-1.952;2023-10-31T16:48:38;1.70;;;1.43;;
66127;SDS011;52925;52.436;-1.952;2023-10-31T16:50:01;2.67;;;1.50;;
66127;SDS011;52925;52.436;-1.952;2023-10-31T16:51:22;2.63;;;1.40;;
66127;SDS011;52925;52.436;-1.952;2023-10-31T16:52:42;3.50;;;1.50;;
66127;SDS011;52925;52.436;-1.952;2023-10-31T16:54:02;1.37;;;1.27;;
66127;SDS011;52925;52.436;-1.952;2023-10-31T16:55:23;1.67;;;1.53;;
66127;SDS011;52925;52.436;-1.952;2023-10-31T16:56:43;3.57;;;1.53;;
66127;SDS011;52925;52.436;-1.952;2023-10-31T16:58:04;3.00;;;1.90;;
66127;SDS011;52925;52.436;-1.952;2023-10-31T16:59:30;1.87;;;1.47;;
66127;SDS011;52925;52.436;-1.952;2023-10-31T17:00:51;2.03;;;1.50;;
66127;SDS011;52925;52.436;-1.952;2023-10-31T17:02:11;2.40;;;1.47;;
66127;SDS011;52925;52.436;-1.952;2023-10-31T17:03:32;1.93;;;1.70;;
66127;SDS011;52925;52.436;-1.952;2023-10-31T17:04:52;4.10;;;1.97;;
66127;SDS011;52925;52.436;-1.952;2023-10-31T17:06:15;2.00;;;1.70;;
66127;SDS011;52925;52.436;-1.952;2023-10-31T17:07:35;2.10;;;1.50;;
66127;SDS011;52925;52.436;-1.952;2023-10-31T17:08:56;2.17;;;1.50;;
66127;SDS011;52925;52.436;-1.952;2023-10-31T17:10:16;2.73;;;1.73;;
66127;SDS011;52925;52.436;-1.952;2023-10-31T17:11:37;3.60;;;1.83;;
66127;SDS011;52925;52.436;-1.952;2023-10-31T17:12:56;2.87;;;1.80;;
66127;SDS011;52925;52.436;-1.952;2023-10-31T17:14:17;2.47;;;1.80;;
66127;SDS011;52925;52.436;-1.952;2023-10-31T17:15:38;2.80;;;1.73;;
66127;SDS011;52925;52.436;-1.952;2023-10-31T17:16:59;2.37;;;1.70;;
66127;SDS011;52925;52.436;-1.952;2023-10-31T17:18:19;2.80;;;1.97;;
66127;SDS011;52925;52.436;-1.952;2023-10-31T17:19:39;2.57;;;1.70;;
66127;SDS011;52925;52.436;-1.952;2023-10-31T17:20:59;3.70;;;2.07;;
66127;SDS011;52925;52.436;-1.952;2023-10-31T17:22:20;2.03;;;1.70;;
66127;SDS011;52925;52.436;-1.952;2023-10-31T17:23:40;6.83;;;2.00;;
66127;SDS011;52925;52.436;-1.952;2023-10-31T17:25:03;2.13;;;1.90;;
66127;SDS011;52925;52.436;-1.952;2023-10-31T17:26:23;3.30;;;2.00;;
66127;SDS011;52925;52.436;-1.952;2023-10-31T17:27:44;2.67;;;2.23;;
66127;SDS011;52925;52.436;-1.952;2023-10-31T17:29:04;2.40;;;2.10;;
66127;SDS011;52925;52.436;-1.952;2023-10-31T17:30:25;2.67;;;2.20;;
66127;SDS011;52925;52.436;-1.952;2023-10-31T17:31:46;4.77;;;2.20;;
66127;SDS011;52925;52.436;-1.952;2023-10-31T17:33:07;3.60;;;2.17;;
66127;SDS011;52925;52.436;-1.952;2023-10-31T17:34:27;3.70;;;2.10;;
66127;SDS011;52925;52.436;-1.952;2023-10-31T17:35:48;3.30;;;2.30;;
66127;SDS011;52925;52.436;-1.952;2023-10-31T17:37:07;3.53;;;2.30;;
66127;SDS011;52925;52.436;-1.952;2023-10-31T17:38:28;2.63;;;2.27;;
66127;SDS011;52925;52.436;-1.952;2023-10-31T17:39:48;2.83;;;2.30;;
66127;SDS011;52925;52.436;-1.952;2023-10-31T17:41:09;3.13;;;2.37;;
66127;SDS011;52925;52.436;-1.952;2023-10-31T17:42:28;3.03;;;2.50;;
66127;SDS011;52925;52.436;-1.952;2023-10-31T17:43:52;3.93;;;3.03;;
66127;SDS011;52925;52.436;-1.952;2023-10-31T17:45:12;5.87;;;2.93;;
66127;SDS011;52925;52.436;-1.952;2023-10-31T17:46:32;5.30;;;2.60;;
66127;SDS011;52925;52.436;-1.952;2023-10-31T17:47:53;3.03;;;2.63;;
66127;SDS011;52925;52.436;-1.952;2023-10-31T17:49:15;2.83;;;2.57;;
66127;SDS011;52925;52.436;-1.952;2023-10-31T17:50:35;3.97;;;3.00;;
66127;SDS011;52925;52.436;-1.952;2023-10-31T17:51:55;3.73;;;2.97;;
66127;SDS011;52925;52.436;-1.952;2023-10-31T17:53:16;5.67;;;3.03;;
66127;SDS011;52925;52.436;-1.952;2023-10-31T17:54:37;4.17;;;2.80;;
66127;SDS011;52925;52.436;-1.952;2023-10-31T17:56:00;4.07;;;3.07;;
66127;SDS011;52925;52.436;-1.952;2023-10-31T17:57:21;6.23;;;2.60;;
66127;SDS011;52925;52.436;-1.952;2023-10-31T17:58:41;4.57;;;2.93;;
66127;SDS011;52925;52.436;-1.952;2023-10-31T18:00:01;3.93;;;2.80;;
66127;SDS011;52925;52.436;-1.952;2023-10-31T18:01:31;3.60;;;3.00;;
66127;SDS011;52925;52.436;-1.952;2023-10-31T18:02:53;3.50;;;3.20;;
66127;SDS011;52925;52.436;-1.952;2023-10-31T18:04:16;5.17;;;2.87;;
66127;SDS011;52925;52.436;-1.952;2023-10-31T18:05:37;4.07;;;2.73;;
66127;SDS011;52925;52.436;-1.952;2023-10-31T18:06:57;3.03;;;2.73;;
66127;SDS011;52925;52.436;-1.952;2023-10-31T18:08:17;3.30;;;2.60;;
66127;SDS011;52925;52.436;-1.952;2023-10-31T18:09:38;5.33;;;2.80;;
66127;SDS011;52925;52.436;-1.952;2023-10-31T18:10:58;3.80;;;2.90;;
66127;SDS011;52925;52.436;-1.952;2023-10-31T18:12:19;3.73;;;2.67;;
66127;SDS011;52925;52.436;-1.952;2023-10-31T18:13:39;3.37;;;2.93;;
66127;SDS011;52925;52.436;-1.952;2023-10-31T18:15:00;3.47;;;2.83;;
66127;SDS011;52925;52.436;-1.952;2023-10-31T18:16:20;4.13;;;3.03;;
66127;SDS011;52925;52.436;-1.952;2023-10-31T18:17:41;4.13;;;2.90;;
66127;SDS011;52925;52.436;-1.952;2023-10-31T18:19:03;3.33;;;2.90;;
66127;SDS011;52925;52.436;-1.952;2023-10-31T18:20:24;2.83;;;2.47;;
66127;SDS011;52925;52.436;-1.952;2023-10-31T18:21:44;4.03;;;2.87;;
66127;SDS011;52925;52.436;-1.952;2023-10-31T18:23:05;4.20;;;2.67;;
66127;SDS011;52925;52.436;-1.952;2023-10-31T18:24:24;3.57;;;3.00;;
66127;SDS011;52925;52.436;-1.952;2023-10-31T18:25:45;3.47;;;2.77;;
66127;SDS011;52925;52.436;-1.952;2023-10-31T18:27:05;4.60;;;2.83;;
66127;SDS011;52925;52.436;-1.952;2023-10-31T18:28:26;3.00;;;2.70;;
66127;SDS011;52925;52.436;-1.952;2023-10-31T18:29:46;4.30;;;2.70;;
66127;SDS011;52925;52.436;-1.952;2023-10-31T18:31:10;4.10;;;2.80;;
66127;SDS011;52925;52.436;-1.952;2023-10-31T18:32:29;3.57;;;2.90;;
66127;SDS011;52925;52.436;-1.952;2023-10-31T18:33:50;4.20;;;2.90;;
66127;SDS011;52925;52.436;-1.952;2023-10-31T18:35:11;4.53;;;2.90;;
66127;SDS011;52925;52.436;-1.952;2023-10-31T18:36:32;5.30;;;3.60;;
66127;SDS011;52925;52.436;-1.952;2023-10-31T18:37:53;5.70;;;3.60;;
66127;SDS011;52925;52.436;-1.952;2023-10-31T18:39:14;5.33;;;3.23;;
66127;SDS011;52925;52.436;-1.952;2023-10-31T18:40:34;3.90;;;3.50;;
66127;SDS011;52925;52.436;-1.952;2023-10-31T18:41:55;4.60;;;2.90;;
66127;SDS011;52925;52.436;-1.952;2023-10-31T18:43:15;6.67;;;3.43;;
66127;SDS011;52925;52.436;-1.952;2023-10-31T18:44:36;6.13;;;3.50;;
66127;SDS011;52925;52.436;-1.952;2023-10-31T18:45:56;3.80;;;3.13;;
66127;SDS011;52925;52.436;-1.952;2023-10-31T18:47:17;4.20;;;2.87;;
66127;SDS011;52925;52.436;-1.952;2023-10-31T18:48:37;5.50;;;3.37;;
66127;SDS011;52925;52.436;-1.952;2023-10-31T18:49:58;4.90;;;3.07;;
66127;SDS011;52925;52.436;-1.952;2023-10-31T18:51:19;5.43;;;3.50;;
66127;SDS011;52925;52.436;-1.952;2023-10-31T18:52:40;5.90;;;3.60;;
66127;SDS011;52925;52.436;-1.952;2023-10-31T18:54:00;4.47;;;3.00;;
66127;SDS011;52925;52.436;-1.952;2023-10-31T18:55:21;4.77;;;3.53;;
66127;SDS011;52925;52.436;-1.952;2023-10-31T18:56:42;4.50;;;3.00;;
66127;SDS011;52925;52.436;-1.952;2023-10-31T18:58:02;4.73;;;3.23;;
66127;SDS011;52925;52.436;-1.952;2023-10-31T18:59:23;4.33;;;3.27;;
66127;SDS011;52925;52.436;-1.952;2023-10-31T19:00:43;3.77;;;3.10;;
66127;SDS011;52925;52.436;-1.952;2023-10-31T19:02:04;4.67;;;3.07;;
66127;SDS011;52925;52.436;-1.952;2023-10-31T19:03:24;7.77;;;3.90;;
66127;SDS011;52925;52.436;-1.952;2023-10-31T19:04:44;4.43;;;2.80;;
66127;SDS011;52925;52.436;-1.952;2023-10-31T19:06:04;5.60;;;3.80;;
66127;SDS011;52925;52.436;-1.952;2023-10-31T19:07:27;4.33;;;3.27;;
66127;SDS011;52925;52.436;-1.952;2023-10-31T19:08:47;5.30;;;3.00;;
66127;SDS011;52925;52.436;-1.952;2023-10-31T19:10:08;5.83;;;3.50;;
66127;SDS011;52925;52.436;-1.952;2023-10-31T19:11:28;5.07;;;3.50;;
66127;SDS011;52925;52.436;-1.952;2023-10-31T19:12:49;4.87;;;3.10;;
66127;SDS011;52925;52.436;-1.952;2023-10-31T19:14:09;3.50;;;3.17;;
66127;SDS011;52925;52.436;-1.952;2023-10-31T19:15:30;4.00;;;2.97;;
66127;SDS011;52925;52.436;-1.952;2023-10-31T19:16:50;5.60;;;3.13;;
66127;SDS011;52925;52.436;-1.952;2023-10-31T19:18:11;5.03;;;3.37;;
66127;SDS011;52925;52.436;-1.952;2023-10-31T19:19:32;4.23;;;3.37;;
66127;SDS011;52925;52.436;-1.952;2023-10-31T19:20:51;6.60;;;3.27;;
66127;SDS011;52925;52.436;-1.952;2023-10-31T19:22:12;3.83;;;3.30;;
66127;SDS011;52925;52.436;-1.952;2023-10-31T19:23:34;7.37;;;3.60;;
66127;SDS011;52925;52.436;-1.952;2023-10-31T19:24:54;4.13;;;3.43;;
66127;SDS011;52925;52.436;-1.952;2023-10-31T19:26:14;6.17;;;4.00;;
66127;SDS011;52925;52.436;-1.952;2023-10-31T19:27:36;5.23;;;4.17;;
66127;SDS011;52925;52.436;-1.952;2023-10-31T19:28:57;4.47;;;3.67;;
66127;SDS011;52925;52.436;-1.952;2023-10-31T19:30:18;7.03;;;4.43;;
66127;SDS011;52925;52.436;-1.952;2023-10-31T19:31:37;5.97;;;4.37;;
66127;SDS011;52925;52.436;-1.952;2023-10-31T19:32:59;7.03;;;4.40;;
66127;SDS011;52925;52.436;-1.952;2023-10-31T19:34:19;5.73;;;4.50;;
66127;SDS011;52925;52.436;-1.952;2023-10-31T19:35:40;7.13;;;5.07;;
66127;SDS011;52925;52.436;-1.952;2023-10-31T19:36:59;6.27;;;4.53;;
66127;SDS011;52925;52.436;-1.952;2023-10-31T19:38:20;6.57;;;4.43;;
66127;SDS011;52925;52.436;-1.952;2023-10-31T19:39:42;6.27;;;5.10;;
66127;SDS011;52925;52.436;-1.952;2023-10-31T19:41:02;6.10;;;4.17;;
66127;SDS011;52925;52.436;-1.952;2023-10-31T19:42:24;7.87;;;5.37;;
66127;SDS011;52925;52.436;-1.952;2023-10-31T19:43:45;5.53;;;4.60;;
66127;SDS011;52925;52.436;-1.952;2023-10-31T19:45:05;6.83;;;4.50;;
66127;SDS011;52925;52.436;-1.952;2023-10-31T19:46:27;6.17;;;4.73;;
66127;SDS011;52925;52.436;-1.952;2023-10-31T19:47:47;5.87;;;4.43;;
66127;SDS011;52925;52.436;-1.952;2023-10-31T19:49:07;6.97;;;5.10;;
66127;SDS011;52925;52.436;-1.952;2023-10-31T19:50:27;8.20;;;5.10;;
66127;SDS011;52925;52.436;-1.952;2023-10-31T19:51:48;5.87;;;4.47;;
66127;SDS011;52925;52.436;-1.952;2023-10-31T19:53:08;6.57;;;4.80;;
66127;SDS011;52925;52.436;-1.952;2023-10-31T19:54:29;6.13;;;4.50;;
66127;SDS011;52925;52.436;-1.952;2023-10-31T19:55:50;6.23;;;5.10;;
66127;SDS011;52925;52.436;-1.952;2023-10-31T19:57:11;6.83;;;4.80;;
66127;SDS011;52925;52.436;-1.952;2023-10-31T19:58:36;7.53;;;4.60;;
66127;SDS011;52925;52.436;-1.952;2023-10-31T19:59:56;6.00;;;4.63;;
66127;SDS011;52925;52.436;-1.952;2023-10-31T20:01:16;5.63;;;4.23;;
66127;SDS011;52925;52.436;-1.952;2023-10-31T20:02:38;10.03;;;4.67;;
66127;SDS011;52925;52.436;-1.952;2023-10-31T20:03:58;6.70;;;4.30;;
66127;SDS011;52925;52.436;-1.952;2023-10-31T20:05:19;7.10;;;4.83;;
66127;SDS011;52925;52.436;-1.952;2023-10-31T20:06:39;7.03;;;4.73;;
66127;SDS011;52925;52.436;-1.952;2023-10-31T20:08:00;11.33;;;5.27;;
66127;SDS011;52925;52.436;-1.952;2023-10-31T20:09:21;11.40;;;5.07;;
66127;SDS011;52925;52.436;-1.952;2023-10-31T20:10:42;7.50;;;4.60;;
66127;SDS011;52925;52.436;-1.952;2023-10-31T20:12:03;8.27;;;5.00;;
66127;SDS011;52925;52.436;-1.952;2023-10-31T20:13:24;9.43;;;4.80;;
66127;SDS011;52925;52.436;-1.952;2023-10-31T20:14:44;6.27;;;4.40;;
66127;SDS011;52925;52.436;-1.952;2023-10-31T20:16:05;8.97;;;4.73;;
66127;SDS011;52925;52.436;-1.952;2023-10-31T20:17:25;6.40;;;4.23;;
66127;SDS011;52925;52.436;-1.952;2023-10-31T20:18:46;9.87;;;4.50;;
66127;SDS011;52925;52.436;-1.952;2023-10-31T20:20:06;6.83;;;4.13;;
66127;SDS011;52925;52.436;-1.952;2023-10-31T20:21:28;6.60;;;4.33;;
66127;SDS011;52925;52.436;-1.952;2023-10-31T20:22:48;8.13;;;4.37;;
66127;SDS011;52925;52.436;-1.952;2023-10-31T20:24:08;5.37;;;3.73;;
66127;SDS011;52925;52.436;-1.952;2023-10-31T20:25:28;7.60;;;4.57;;
66127;SDS011;52925;52.436;-1.952;2023-10-31T20:26:52;5.87;;;4.13;;
66127;SDS011;52925;52.436;-1.952;2023-10-31T20:28:13;5.80;;;3.77;;
66127;SDS011;52925;52.436;-1.952;2023-10-31T20:29:34;5.53;;;3.63;;
66127;SDS011;52925;52.436;-1.952;2023-10-31T20:30:53;3.87;;;3.40;;
66127;SDS011;52925;52.436;-1.952;2023-10-31T20:32:14;6.37;;;4.00;;
66127;SDS011;52925;52.436;-1.952;2023-10-31T20:33:34;8.37;;;4.10;;
66127;SDS011;52925;52.436;-1.952;2023-10-31T20:34:55;5.37;;;3.37;;
66127;SDS011;52925;52.436;-1.952;2023-10-31T20:36:15;7.23;;;3.87;;
66127;SDS011;52925;52.436;-1.952;2023-10-31T20:37:36;6.67;;;3.73;;
66127;SDS011;52925;52.436;-1.952;2023-10-31T20:38:55;6.03;;;3.30;;
66127;SDS011;52925;52.436;-1.952;2023-10-31T20:40:16;6.73;;;3.10;;
66127;SDS011;52925;52.436;-1.952;2023-10-31T20:41:36;5.53;;;3.20;;
66127;SDS011;52925;52.436;-1.952;2023-10-31T20:42:57;6.07;;;2.87;;
66127;SDS011;52925;52.436;-1.952;2023-10-31T20:44:18;5.20;;;3.07;;
66127;SDS011;52925;52.436;-1.952;2023-10-31T20:45:39;6.60;;;3.37;;
66127;SDS011;52925;52.436;-1.952;2023-10-31T20:46:59;6.17;;;3.43;;
66127;SDS011;52925;52.436;-1.952;2023-10-31T20:48:19;3.50;;;2.70;;
66127;SDS011;52925;52.436;-1.952;2023-10-31T20:49:40;6.10;;;3.20;;
66127;SDS011;52925;52.436;-1.952;2023-10-31T20:51:00;4.63;;;3.27;;
66127;SDS011;52925;52.436;-1.952;2023-10-31T20:52:21;3.73;;;3.13;;
66127;SDS011;52925;52.436;-1.952;2023-10-31T20:53:41;6.23;;;3.20;;
66127;SDS011;52925;52.436;-1.952;2023-10-31T20:55:03;7.73;;;3.50;;
66127;SDS011;52925;52.436;-1.952;2023-10-31T20:56:23;5.60;;;3.30;;
66127;SDS011;52925;52.436;-1.952;2023-10-31T20:57:44;7.47;;;3.10;;
66127;SDS011;52925;52.436;-1.952;2023-10-31T20:59:04;5.37;;;2.80;;
66127;SDS011;52925;52.436;-1.952;2023-10-31T21:00:27;6.97;;;3.13;;
66127;SDS011;52925;52.436;-1.952;2023-10-31T21:01:46;3.47;;;2.63;;
66127;SDS011;52925;52.436;-1.952;2023-10-31T21:03:07;4.47;;;2.63;;
66127;SDS011;52925;52.436;-1.952;2023-10-31T21:04:28;6.20;;;3.00;;
66127;SDS011;52925;52.436;-1.952;2023-10-31T21:05:50;6.30;;;2.97;;
66127;SDS011;52925;52.436;-1.952;2023-10-31T21:07:10;6.73;;;2.73;;
66127;SDS011;52925;52.436;-1.952;2023-10-31T21:08:33;4.97;;;2.70;;
66127;SDS011;52925;52.436;-1.952;2023-10-31T21:09:52;5.70;;;2.83;;
66127;SDS011;52925;52.436;-1.952;2023-10-31T21:11:13;4.60;;;2.73;;
66127;SDS011;52925;52.436;-1.952;2023-10-31T21:12:33;8.10;;;2.70;;
66127;SDS011;52925;52.436;-1.952;2023-10-31T21:13:54;6.10;;;2.83;;
66127;SDS011;52925;52.436;-1.952;2023-10-31T21:15:16;4.43;;;2.60;;
66127;SDS011;52925;52.436;-1.952;2023-10-31T21:16:38;4.23;;;2.67;;
66127;SDS011;52925;52.436;-1.952;2023-10-31T21:17:58;4.67;;;2.60;;
66127;SDS011;52925;52.436;-1.952;2023-10-31T21:19:19;2.97;;;2.10;;
66127;SDS011;52925;52.436;-1.952;2023-10-31T21:20:39;6.40;;;2.93;;
66127;SDS011;52925;52.436;-1.952;2023-10-31T21:22:00;3.33;;;2.60;;
66127;SDS011;52925;52.436;-1.952;2023-10-31T21:23:20;4.40;;;2.70;;
66127;SDS011;52925;52.436;-1.952;2023-10-31T21:24:41;4.10;;;2.40;;
66127;SDS011;52925;52.436;-1.952;2023-10-31T21:26:01;4.07;;;2.60;;
66127;SDS011;52925;52.436;-1.952;2023-10-31T21:27:22;4.00;;;2.60;;
66127;SDS011;52925;52.436;-1.952;2023-10-31T21:28:42;6.20;;;2.80;;
66127;SDS011;52925;52.436;-1.952;2023-10-31T21:30:03;6.13;;;2.37;;
66127;SDS011;52925;52.436;-1.952;2023-10-31T21:31:24;4.33;;;2.53;;
66127;SDS011;52925;52.436;-1.952;2023-10-31T21:32:47;4.40;;;2.50;;
66127;SDS011;52925;52.436;-1.952;2023-10-31T21:34:06;4.40;;;2.40;;
66127;SDS011;52925;52.436;-1.952;2023-10-31T21:35:27;6.53;;;2.70;;
66127;SDS011;52925;52.436;-1.952;2023-10-31T21:36:47;4.57;;;2.77;;
66127;SDS011;52925;52.436;-1.952;2023-10-31T21:38:08;6.33;;;2.93;;
66127;SDS011;52925;52.436;-1.952;2023-10-31T21:39:28;4.80;;;2.20;;
66127;SDS011;52925;52.436;-1.952;2023-10-31T21:40:48;4.23;;;2.43;;
66127;SDS011;52925;52.436;-1.952;2023-10-31T21:42:08;4.30;;;2.73;;
66127;SDS011;52925;52.436;-1.952;2023-10-31T21:43:29;5.43;;;2.40;;
66127;SDS011;52925;52.436;-1.952;2023-10-31T21:44:49;6.50;;;2.33;;
66127;SDS011;52925;52.436;-1.952;2023-10-31T21:46:10;6.20;;;2.73;;
66127;SDS011;52925;52.436;-1.952;2023-10-31T21:47:30;4.90;;;2.60;;
66127;SDS011;52925;52.436;-1.952;2023-10-31T21:48:53;4.07;;;2.07;;
66127;SDS011;52925;52.436;-1.952;2023-10-31T21:50:13;5.47;;;2.80;;
66127;SDS011;52925;52.436;-1.952;2023-10-31T21:51:34;6.00;;;1.97;;
66127;SDS011;52925;52.436;-1.952;2023-10-31T21:52:54;4.80;;;2.47;;
66127;SDS011;52925;52.436;-1.952;2023-10-31T21:54:15;4.30;;;2.40;;
66127;SDS011;52925;52.436;-1.952;2023-10-31T21:55:35;5.07;;;2.20;;
66127;SDS011;52925;52.436;-1.952;2023-10-31T21:56:56;3.83;;;2.30;;
66127;SDS011;52925;52.436;-1.952;2023-10-31T21:58:16;5.27;;;2.60;;
66127;SDS011;52925;52.436;-1.952;2023-10-31T21:59:37;4.50;;;2.40;;
66127;SDS011;52925;52.436;-1.952;2023-10-31T22:00:58;5.07;;;2.50;;
66127;SDS011;52925;52.436;-1.952;2023-10-31T22:02:19;3.43;;;2.07;;
66127;SDS011;52925;52.436;-1.952;2023-10-31T22:03:39;3.03;;;2.30;;
66127;SDS011;52925;52.436;-1.952;2023-10-31T22:05:01;4.83;;;2.70;;
66127;SDS011;52925;52.436;-1.952;2023-10-31T22:06:21;3.70;;;2.43;;
66127;SDS011;52925;52.436;-1.952;2023-10-31T22:07:42;4.13;;;2.30;;
66127;SDS011;52925;52.436;-1.952;2023-10-31T22:09:03;4.67;;;2.57;;
66127;SDS011;52925;52.436;-1.952;2023-10-31T22:10:24;4.13;;;2.33;;
66127;SDS011;52925;52.436;-1.952;2023-10-31T22:11:44;4.10;;;2.40;;
66127;SDS011;52925;52.436;-1.952;2023-10-31T22:13:05;4.60;;;2.30;;
66127;SDS011;52925;52.436;-1.952;2023-10-31T22:14:25;5.30;;;2.47;;
66127;SDS011;52925;52.436;-1.952;2023-10-31T22:15:46;4.33;;;2.37;;
66127;SDS011;52925;52.436;-1.952;2023-10-31T22:17:06;3.77;;;2.30;;
66127;SDS011;52925;52.436;-1.952;2023-10-31T22:18:26;4.27;;;2.27;;
66127;SDS011;52925;52.436;-1.952;2023-10-31T22:19:47;7.37;;;2.10;;
66127;SDS011;52925;52.436;-1.952;2023-10-31T22:21:09;3.70;;;2.50;;
66127;SDS011;52925;52.436;-1.952;2023-10-31T22:22:30;3.30;;;2.13;;
66127;SDS011;52925;52.436;-1.952;2023-10-31T22:23:51;3.20;;;2.00;;
66127;SDS011;52925;52.436;-1.952;2023-10-31T22:25:10;5.33;;;2.53;;
66127;SDS011;52925;52.436;-1.952;2023-10-31T22:26:31;5.50;;;2.47;;
66127;SDS011;52925;52.436;-1.952;2023-10-31T22:27:52;6.20;;;2.00;;
66127;SDS011;52925;52.436;-1.952;2023-10-31T22:29:13;4.30;;;2.10;;
